createdAt,value
2023-02-27T15:49:47.245Z,1.30
2023-02-27T15:52:13.861Z,1.20
2023-02-27T15:54:40.414Z,1.08
2023-02-27T15:57:07.549Z,1.67
2023-02-27T15:59:34.258Z,1.42
2023-02-27T16:02:04.022Z,1.58
2023-02-27T16:04:31.430Z,1.48
2023-02-27T16:06:58.071Z,1.55
2023-02-27T16:09:24.677Z,1.83
2023-02-27T16:11:51.283Z,2.55
2023-02-27T16:14:17.851Z,4.15
2023-02-27T16:16:44.615Z,3.60
2023-02-27T16:19:11.343Z,4.65
2023-02-27T16:21:38.184Z,4.53
2023-02-27T16:24:04.736Z,5.15
2023-02-27T16:26:31.985Z,5.32
2023-02-27T16:28:59.976Z,5.25
2023-02-27T16:31:26.735Z,5.55
2023-02-27T16:33:53.343Z,5.43
2023-02-27T16:36:20.291Z,5.82
2023-02-27T16:38:46.933Z,5.40
2023-02-27T16:41:15.866Z,4.68
2023-02-27T16:43:43.321Z,4.78
2023-02-27T16:46:10.160Z,4.80
2023-02-27T16:48:36.761Z,4.82
2023-02-27T16:51:03.792Z,4.55
2023-02-27T16:53:30.370Z,4.72
2023-02-27T16:55:57.142Z,4.85
2023-02-27T16:58:25.140Z,4.63
2023-02-27T17:00:51.765Z,4.50
2023-02-27T17:03:18.428Z,4.32
2023-02-27T17:05:45.195Z,4.07
2023-02-27T17:08:12.397Z,4.07
2023-02-27T17:10:39.115Z,3.97
2023-02-27T17:13:06.135Z,3.55
2023-02-27T17:15:32.812Z,3.92
2023-02-27T17:17:59.434Z,3.67
2023-02-27T17:20:27.999Z,3.63
2023-02-27T17:22:54.825Z,3.70
2023-02-27T17:25:21.717Z,3.08
2023-02-27T17:27:48.281Z,3.15
2023-02-27T17:30:14.887Z,3.05
2023-02-27T17:32:41.476Z,3.00
2023-02-27T17:35:08.849Z,2.90
2023-02-27T17:37:35.400Z,3.30
2023-02-27T17:40:04.329Z,2.90
2023-02-27T17:42:30.948Z,2.75
2023-02-27T17:44:57.885Z,3.25
2023-02-27T17:47:24.459Z,2.85
2023-02-27T17:49:51.162Z,2.50
2023-02-27T17:52:17.766Z,2.95
2023-02-27T17:54:44.454Z,2.30
2023-02-27T17:57:13.257Z,2.33
2023-02-27T17:59:40.412Z,2.22
2023-02-27T18:02:06.971Z,2.70
2023-02-27T18:04:33.546Z,2.80
2023-02-27T18:07:00.113Z,2.25
2023-02-27T18:09:26.852Z,2.45
2023-02-27T18:11:53.453Z,2.00
2023-02-27T18:14:20.037Z,2.20
2023-02-27T18:16:46.680Z,2.03
2023-02-27T18:19:14.323Z,1.95
2023-02-27T18:21:42.415Z,2.00
2023-02-27T18:24:09.130Z,1.92
2023-02-27T18:26:36.130Z,1.80
2023-02-27T18:29:03.121Z,1.88
2023-02-27T18:31:29.855Z,1.77
2023-02-27T18:33:56.496Z,1.98
2023-02-27T18:36:23.314Z,1.73
2023-02-27T18:38:49.889Z,1.60
2023-02-27T18:41:16.495Z,1.80
2023-02-27T18:43:43.122Z,1.77
2023-02-27T18:46:09.761Z,1.80
2023-02-27T18:48:36.440Z,1.70
2023-02-27T18:51:04.723Z,1.75
2023-02-27T18:53:31.346Z,1.60
2023-02-27T18:55:57.950Z,1.50
2023-02-27T18:58:24.550Z,1.55
2023-02-27T19:00:51.446Z,1.80
2023-02-27T19:03:18.700Z,1.58
2023-02-27T19:05:45.425Z,1.75
2023-02-27T19:08:12.040Z,1.83
2023-02-27T19:10:38.596Z,1.85
2023-02-27T19:13:05.473Z,1.70
2023-02-27T19:15:32.894Z,1.88
2023-02-27T19:17:59.528Z,2.20
2023-02-27T19:20:26.165Z,1.73
2023-02-27T19:22:53.501Z,2.20
2023-02-27T19:25:20.096Z,2.10
2023-02-27T19:27:46.830Z,2.20
2023-02-27T19:30:13.509Z,2.10
2023-02-27T19:32:40.116Z,2.13
2023-02-27T19:35:06.741Z,2.53
2023-02-27T19:37:33.329Z,2.67
2023-02-27T19:39:59.943Z,2.63
2023-02-27T19:42:26.551Z,2.70
2023-02-27T19:44:53.147Z,2.63
2023-02-27T19:47:19.778Z,2.60
2023-02-27T19:49:46.944Z,2.53
2023-02-27T19:52:13.568Z,2.83
2023-02-27T19:54:40.904Z,2.58
2023-02-27T19:57:07.671Z,2.72
2023-02-27T19:59:34.255Z,3.10
2023-02-27T20:02:00.846Z,2.90
2023-02-27T20:04:27.697Z,3.13
2023-02-27T20:06:54.529Z,3.45
2023-02-27T20:09:21.121Z,3.17
2023-02-27T20:11:47.714Z,3.20
2023-02-27T20:14:14.327Z,3.13
